createdAt,value
2017-09-24T00:01:37.384Z,78.50
2017-09-24T00:04:03.677Z,78.50
2017-09-24T00:06:30.252Z,78.50
2017-09-24T00:08:56.543Z,78.40
2017-09-24T00:11:22.840Z,78.40
2017-09-24T00:13:49.149Z,78.60
2017-09-24T00:16:15.431Z,78.70
2017-09-24T00:18:42.093Z,78.60
2017-09-24T00:21:08.397Z,78.60
2017-09-24T00:23:35.081Z,78.30
2017-09-24T00:26:01.460Z,78.30
2017-09-24T00:28:28.188Z,79.00
2017-09-24T00:30:54.504Z,79.00
2017-09-24T00:33:20.866Z,79.90
2017-09-24T00:35:47.243Z,79.60
2017-09-24T00:38:13.545Z,79.00
2017-09-24T00:40:39.871Z,78.80
2017-09-24T00:43:06.177Z,78.80
2017-09-24T00:45:32.506Z,78.80
2017-09-24T00:47:58.825Z,78.80
2017-09-24T00:50:25.639Z,78.70
2017-09-24T00:52:51.955Z,79.10
2017-09-24T00:55:18.272Z,80.10
2017-09-24T00:57:44.598Z,79.70
2017-09-24T01:00:10.930Z,79.80
2017-09-24T01:02:37.245Z,79.70
2017-09-24T01:05:03.941Z,79.10
2017-09-24T01:07:30.300Z,79.10
2017-09-24T01:09:56.612Z,78.90
2017-09-24T01:12:22.944Z,78.90
2017-09-24T01:14:49.265Z,79.40
2017-09-24T01:17:15.627Z,79.30
2017-09-24T01:19:42.365Z,79.30
2017-09-24T01:22:09.074Z,79.70
2017-09-24T01:24:35.428Z,79.70
2017-09-24T01:27:01.771Z,79.50
2017-09-24T01:29:28.121Z,79.30
2017-09-24T01:32:01.227Z,78.90
2017-09-24T01:34:27.545Z,78.90
2017-09-24T01:36:53.841Z,79.10
2017-09-24T01:39:20.203Z,79.40
2017-09-24T01:41:46.549Z,79.30
2017-09-24T01:44:12.895Z,79.50
2017-09-24T01:46:39.245Z,79.50
2017-09-24T01:49:05.568Z,79.40
2017-09-24T01:51:31.919Z,79.40
2017-09-24T01:53:58.294Z,79.50
2017-09-24T01:56:24.623Z,79.50
2017-09-24T01:58:50.929Z,79.50
2017-09-24T02:01:17.280Z,79.80
2017-09-24T02:03:43.610Z,79.80
2017-09-24T02:06:09.890Z,79.60
2017-09-24T02:08:36.199Z,79.30
2017-09-24T02:11:02.483Z,79.10
2017-09-24T02:13:28.783Z,78.90
2017-09-24T02:15:55.054Z,78.90
2017-09-24T02:18:21.352Z,78.90
2017-09-24T02:20:47.673Z,79.20
2017-09-24T02:23:14.380Z,79.20
2017-09-24T02:25:40.645Z,79.20
2017-09-24T02:28:06.975Z,79.40
2017-09-24T02:30:33.288Z,79.50
2017-09-24T02:32:59.557Z,79.50
2017-09-24T02:35:25.848Z,79.50
2017-09-24T02:37:52.166Z,79.40
2017-09-24T02:40:18.447Z,79.30
2017-09-24T02:42:44.775Z,79.60
2017-09-24T02:45:11.457Z,79.60
2017-09-24T02:47:37.770Z,79.60
2017-09-24T02:50:04.054Z,79.70
2017-09-24T02:52:30.408Z,79.80
2017-09-24T02:54:56.753Z,79.80
2017-09-24T02:57:23.040Z,79.80
2017-09-24T02:59:49.348Z,79.90
2017-09-24T03:02:15.666Z,79.90
2017-09-24T03:04:41.948Z,79.90
2017-09-24T03:07:08.250Z,79.70
2017-09-24T03:09:34.560Z,79.50
2017-09-24T03:12:00.858Z,79.50
2017-09-24T03:14:27.131Z,79.60
2017-09-24T03:16:53.479Z,79.30
2017-09-24T03:19:19.759Z,79.30
2017-09-24T03:21:46.072Z,79.10
2017-09-24T03:24:12.356Z,79.10
2017-09-24T03:26:38.622Z,79.10
2017-09-24T03:29:04.915Z,79.30
2017-09-24T03:31:31.185Z,79.20
2017-09-24T03:33:57.471Z,78.90
2017-09-24T03:36:23.777Z,78.90
2017-09-24T03:38:50.069Z,78.80
2017-09-24T03:41:16.790Z,78.80
2017-09-24T03:43:43.344Z,78.80
2017-09-24T03:46:09.994Z,79.10
2017-09-24T03:48:36.285Z,79.10
2017-09-24T03:51:02.576Z,79.30
2017-09-24T03:53:28.861Z,80.70
2017-09-24T03:55:55.523Z,80.70
2017-09-24T03:58:21.784Z,80.70
2017-09-24T04:00:48.121Z,80.00
2017-09-24T04:03:21.450Z,79.70
2017-09-24T04:05:47.752Z,80.20
2017-09-24T04:08:14.050Z,80.10
2017-09-24T04:10:40.424Z,79.90
2017-09-24T04:13:06.717Z,79.80
2017-09-24T04:15:32.999Z,79.80
2017-09-24T04:17:59.299Z,79.80
2017-09-24T04:20:25.578Z,79.90
2017-09-24T04:22:51.854Z,79.70
2017-09-24T04:25:18.153Z,79.70
2017-09-24T04:27:44.447Z,79.80
2017-09-24T04:30:11.102Z,79.50
2017-09-24T04:32:37.762Z,79.50
2017-09-24T04:35:04.056Z,79.40
2017-09-24T04:37:30.332Z,79.40
2017-09-24T04:39:56.620Z,79.20
2017-09-24T04:42:23.301Z,79.20
2017-09-24T04:44:49.630Z,79.20
2017-09-24T04:47:15.908Z,79.20
2017-09-24T04:49:42.611Z,80.10
2017-09-24T04:52:08.898Z,80.10
2017-09-24T04:54:35.223Z,81.70
2017-09-24T04:57:01.878Z,80.80
2017-09-24T04:59:28.172Z,80.70
2017-09-24T05:01:54.488Z,80.40
2017-09-24T05:04:20.779Z,80.30
2017-09-24T05:06:47.052Z,80.20
2017-09-24T05:09:13.325Z,79.90
2017-09-24T05:11:39.608Z,80.30
2017-09-24T05:14:05.875Z,80.30
2017-09-24T05:16:32.189Z,79.90
2017-09-24T05:18:58.486Z,80.30
2017-09-24T05:21:24.777Z,80.00
2017-09-24T05:23:51.070Z,80.20
2017-09-24T05:26:17.746Z,80.00
2017-09-24T05:28:44.053Z,80.00
2017-09-24T05:31:10.366Z,79.80
2017-09-24T05:33:36.697Z,79.60
2017-09-24T05:36:03.389Z,79.50
2017-09-24T05:38:29.681Z,79.50
2017-09-24T05:40:56.361Z,80.00
2017-09-24T05:43:22.655Z,80.00
2017-09-24T05:45:49.016Z,80.70
2017-09-24T05:48:15.293Z,80.60
2017-09-24T05:50:41.974Z,80.10
2017-09-24T05:53:08.273Z,80.10
2017-09-24T05:55:34.930Z,80.40
2017-09-24T05:58:01.228Z,80.40
2017-09-24T06:00:27.926Z,81.00
2017-09-24T06:02:54.271Z,81.00
2017-09-24T06:05:20.561Z,80.90
2017-09-24T06:07:46.854Z,80.70
2017-09-24T06:10:13.641Z,80.50
2017-09-24T06:12:39.915Z,80.30
2017-09-24T06:15:06.205Z,80.40
2017-09-24T06:17:32.481Z,80.30
2017-09-24T06:19:58.838Z,80.40
2017-09-24T06:22:25.136Z,80.80
2017-09-24T06:24:51.459Z,80.90
2017-09-24T06:27:17.738Z,80.70
2017-09-24T06:29:44.033Z,81.30
2017-09-24T06:32:10.326Z,81.00
2017-09-24T06:34:36.670Z,80.80
2017-09-24T06:37:02.971Z,81.40
2017-09-24T06:39:29.280Z,81.50
2017-09-24T06:41:55.637Z,81.50
2017-09-24T06:44:28.797Z,81.20
2017-09-24T06:46:55.122Z,81.20
2017-09-24T06:49:21.464Z,81.30
2017-09-24T06:51:47.773Z,81.10
2017-09-24T06:54:14.085Z,80.90
2017-09-24T06:56:40.397Z,81.00
2017-09-24T06:59:06.697Z,80.70
2017-09-24T07:01:33.038Z,80.70
2017-09-24T07:03:59.390Z,80.70
2017-09-24T07:06:25.690Z,80.70
2017-09-24T07:08:52.006Z,81.00
2017-09-24T07:11:18.284Z,81.00
2017-09-24T07:13:44.589Z,80.80
2017-09-24T07:16:10.919Z,80.60
2017-09-24T07:18:37.669Z,80.40
2017-09-24T07:21:03.987Z,80.20
2017-09-24T07:23:30.295Z,79.80
2017-09-24T07:25:56.610Z,79.60
2017-09-24T07:28:22.910Z,79.90
2017-09-24T07:30:49.241Z,80.20
2017-09-24T07:33:15.524Z,80.00
2017-09-24T07:35:41.828Z,79.40
2017-09-24T07:38:08.544Z,78.90
2017-09-24T07:40:34.877Z,78.90
2017-09-24T07:43:01.343Z,78.80
2017-09-24T07:45:27.665Z,78.30
2017-09-24T07:48:06.281Z,76.90
2017-09-24T07:50:32.982Z,77.50
2017-09-24T07:52:59.291Z,77.50
2017-09-24T07:55:25.592Z,77.40
2017-09-24T07:57:51.878Z,76.20
2017-09-24T08:00:18.180Z,76.30
2017-09-24T08:02:44.507Z,75.60
2017-09-24T08:05:10.793Z,75.80
2017-09-24T08:07:37.097Z,75.60
2017-09-24T08:10:03.398Z,75.20
2017-09-24T08:12:39.725Z,75.20
2017-09-24T08:16:44.557Z,73.10
2017-09-24T08:19:12.489Z,73.30
2017-09-24T08:21:38.802Z,73.40
2017-09-24T08:24:05.109Z,72.90
2017-09-24T08:26:31.412Z,72.30
2017-09-24T08:28:57.738Z,71.90
2017-09-24T08:31:24.441Z,72.10
2017-09-24T08:33:50.782Z,72.10
2017-09-24T08:36:17.166Z,72.10
2017-09-24T08:38:43.501Z,72.80
2017-09-24T08:41:10.088Z,73.40
2017-09-24T08:43:36.399Z,73.00
2017-09-24T08:46:02.713Z,72.00
2017-09-24T08:48:29.041Z,70.60
2017-09-24T08:50:55.354Z,69.30
2017-09-24T08:53:21.676Z,65.50
2017-09-24T08:55:48.004Z,65.80
2017-09-24T08:58:14.351Z,66.70
2017-09-24T09:00:40.673Z,65.90
2017-09-24T09:03:07.002Z,65.90
2017-09-24T09:05:34.111Z,66.30
2017-09-24T09:08:00.450Z,66.60
2017-09-24T09:10:27.142Z,66.50
2017-09-24T09:12:53.484Z,66.00
2017-09-24T09:15:19.820Z,66.50
2017-09-24T09:17:46.112Z,66.40
2017-09-24T09:20:12.456Z,67.30
2017-09-24T09:22:38.769Z,66.30
2017-09-24T09:25:05.100Z,66.80
2017-09-24T09:27:31.421Z,65.30
2017-09-24T09:29:58.118Z,68.00
2017-09-24T09:32:25.634Z,68.00
2017-09-24T09:35:04.124Z,65.80
2017-09-24T09:37:30.779Z,65.40
2017-09-24T09:39:57.117Z,65.30
2017-09-24T09:42:36.958Z,64.90
2017-09-24T09:45:16.430Z,64.00
2017-09-24T09:47:44.846Z,64.30
2017-09-24T09:50:12.849Z,63.30
2017-09-24T09:52:39.929Z,63.40
2017-09-24T09:55:06.258Z,63.30
2017-09-24T09:57:32.573Z,64.10
2017-09-24T09:59:58.877Z,61.00
2017-09-24T10:02:25.652Z,63.90
2017-09-24T10:04:52.817Z,63.90
2017-09-24T10:10:16.148Z,60.70
2017-09-24T10:12:42.515Z,62.20
2017-09-24T10:15:08.897Z,59.70
2017-09-24T10:17:35.727Z,58.30
2017-09-24T10:20:03.318Z,57.90
2017-09-24T10:22:29.698Z,53.50
2017-09-24T10:24:56.007Z,49.90
2017-09-24T10:27:22.281Z,42.40
2017-09-24T10:30:01.293Z,37.90
2017-09-24T10:32:27.903Z,37.90
2017-09-24T10:34:57.898Z,30.80
2017-09-24T10:37:24.236Z,32.60
2017-09-24T10:39:57.450Z,31.70
2017-09-24T10:42:23.807Z,31.20
2017-09-24T10:44:50.138Z,27.80
2017-09-24T10:47:17.152Z,27.40
2017-09-24T10:49:43.489Z,24.60
2017-09-24T10:52:10.629Z,24.30
2017-09-24T10:54:36.969Z,21.20
2017-09-24T10:57:03.341Z,22.40
2017-09-24T10:59:29.700Z,20.40
2017-09-24T11:01:56.064Z,20.60
2017-09-24T11:04:22.394Z,20.00
2017-09-24T11:06:48.971Z,19.30
2017-09-24T11:09:15.665Z,17.90
2017-09-24T11:11:41.975Z,17.90
2017-09-24T11:14:09.926Z,18.30
2017-09-24T11:16:36.263Z,17.70
2017-09-24T11:19:03.070Z,18.40
2017-09-24T11:21:29.458Z,21.60
2017-09-24T11:23:55.834Z,21.80
2017-09-24T11:26:22.233Z,20.30
2017-09-24T11:28:49.164Z,19.20
2017-09-24T11:31:15.803Z,18.60
2017-09-24T11:33:42.537Z,17.20
2017-09-24T11:36:09.356Z,17.10
2017-09-24T11:38:35.671Z,17.50
2017-09-24T11:41:02.009Z,15.20
2017-09-24T11:43:29.165Z,15.80
2017-09-24T11:45:55.608Z,16.70
2017-09-24T11:48:21.937Z,15.60
2017-09-24T11:50:48.334Z,15.70
2017-09-24T11:53:15.112Z,16.30
2017-09-24T11:55:42.141Z,16.20
2017-09-24T11:58:08.485Z,15.90
2017-09-24T12:00:34.881Z,17.20
2017-09-24T12:03:01.260Z,15.80
2017-09-24T12:05:27.893Z,15.50
2017-09-24T12:07:55.096Z,14.60
2017-09-24T12:10:21.482Z,14.70
2017-09-24T12:12:47.888Z,13.90
2017-09-24T12:15:15.547Z,14.00
2017-09-24T12:17:42.915Z,12.90
2017-09-24T12:20:09.262Z,12.90
2017-09-24T12:22:36.597Z,14.10
2017-09-24T12:25:02.908Z,13.90
2017-09-24T12:27:29.583Z,13.80
2017-09-24T12:29:55.956Z,13.80
2017-09-24T12:32:22.876Z,13.40
2017-09-24T12:34:49.565Z,14.50
2017-09-24T12:37:15.955Z,15.90
2017-09-24T12:39:42.341Z,16.10
2017-09-24T12:42:09.650Z,16.00
2017-09-24T12:44:35.999Z,16.00
2017-09-24T12:47:02.379Z,19.00
2017-09-24T12:49:29.622Z,21.90
2017-09-24T12:51:55.969Z,25.20
2017-09-24T12:54:22.342Z,26.40
2017-09-24T12:56:50.023Z,30.70
2017-09-24T12:59:21.273Z,33.10
2017-09-24T13:01:49.700Z,33.10
2017-09-24T13:04:16.082Z,34.80
2017-09-24T13:06:43.021Z,37.80
2017-09-24T13:09:09.492Z,37.80
2017-09-24T13:11:39.919Z,39.20
2017-09-24T13:14:06.303Z,39.40
2017-09-24T13:16:32.744Z,42.20
2017-09-24T13:18:59.480Z,44.60
2017-09-24T13:21:28.134Z,44.60
2017-09-24T13:23:54.913Z,44.80
2017-09-24T13:26:21.608Z,46.40
2017-09-24T13:28:49.367Z,46.00
2017-09-24T13:31:15.901Z,46.40
2017-09-24T13:33:42.303Z,45.80
2017-09-24T13:36:09.319Z,47.00
2017-09-24T13:38:35.635Z,47.40
2017-09-24T13:41:01.992Z,48.00
2017-09-24T14:56:24.394Z,54.30
2017-09-24T14:58:51.058Z,54.70
2017-09-24T15:01:19.398Z,56.20
2017-09-24T15:03:47.569Z,56.90
2017-09-24T15:06:16.366Z,57.70
2017-09-24T15:08:43.409Z,58.10
2017-09-24T15:11:10.335Z,58.80
2017-09-24T15:13:38.543Z,59.40
2017-09-24T15:16:07.538Z,59.40
2017-09-24T15:18:39.709Z,59.50
2017-09-24T15:21:08.280Z,60.30
2017-09-24T15:23:37.484Z,59.70
2017-09-24T15:26:06.117Z,59.80
2017-09-24T15:28:33.918Z,59.80
2017-09-24T15:31:03.152Z,59.50
2017-09-24T15:33:31.750Z,60.10
2017-09-24T15:36:01.649Z,60.60
2017-09-24T15:38:30.118Z,60.70
2017-09-24T15:40:59.191Z,60.70
2017-09-24T15:43:27.043Z,60.90
2017-09-24T15:45:54.398Z,61.20
2017-09-24T15:48:22.571Z,61.40
2017-09-24T15:51:00.187Z,61.30
2017-09-24T15:53:29.322Z,62.00
2017-09-24T15:55:57.919Z,62.30
2017-09-24T15:58:24.624Z,62.70
2017-09-24T16:00:51.316Z,63.10
2017-09-24T16:03:19.446Z,62.20
2017-09-24T16:05:48.781Z,62.20
2017-09-24T16:08:16.540Z,62.90
2017-09-24T16:10:44.056Z,63.50
2017-09-24T16:13:13.374Z,63.50
2017-09-24T16:15:41.039Z,63.60
2017-09-24T16:18:08.309Z,63.50
2017-09-24T16:20:39.615Z,64.10
2017-09-24T16:23:10.203Z,64.60
2017-09-24T16:25:37.985Z,64.60
2017-09-24T16:28:07.775Z,64.60
2017-09-24T16:30:35.325Z,65.00
2017-09-24T16:33:03.173Z,64.80
2017-09-24T16:35:31.352Z,65.20
2017-09-24T16:38:00.505Z,66.10
2017-09-24T16:40:33.015Z,66.00
2017-09-24T16:43:01.887Z,65.80
2017-09-24T16:45:29.663Z,65.70
2017-09-24T16:50:29.182Z,65.90
2017-09-24T16:52:56.827Z,66.40
2017-09-24T16:55:23.817Z,66.30
2017-09-24T16:57:51.508Z,66.90
2017-09-24T17:00:18.357Z,66.80
2017-09-24T17:02:45.954Z,66.40
2017-09-24T17:05:13.327Z,67.70
2017-09-24T17:07:41.071Z,69.10
2017-09-24T17:10:08.016Z,69.10
2017-09-24T17:12:34.521Z,69.20
2017-09-24T17:15:04.649Z,66.20
2017-09-24T17:17:33.417Z,68.10
2017-09-24T17:20:03.245Z,68.10
2017-09-24T17:22:31.333Z,68.10
2017-09-24T17:24:59.705Z,67.00
2017-09-24T17:27:26.909Z,67.50
2017-09-24T17:29:53.588Z,67.50
2017-09-24T17:32:22.279Z,67.80
2017-09-24T17:34:50.364Z,68.10
2017-09-24T17:37:19.303Z,67.70
2017-09-24T17:39:48.758Z,68.20
2017-09-24T17:42:17.022Z,68.40
2017-09-24T17:44:46.408Z,67.90
2017-09-24T17:47:17.613Z,68.30
2017-09-24T17:49:46.603Z,66.40
2017-09-24T17:52:13.343Z,66.30
2017-09-24T17:54:40.375Z,66.70
2017-09-24T17:57:08.644Z,67.20
2017-09-24T17:59:37.349Z,67.70
2017-09-24T18:02:08.081Z,68.00
2017-09-24T18:04:34.466Z,68.50
2017-09-24T18:07:02.632Z,69.60
2017-09-24T18:09:30.586Z,69.40
2017-09-24T18:12:00.501Z,69.40
2017-09-24T18:14:28.533Z,68.00
2017-09-24T18:16:55.440Z,68.40
2017-09-24T18:19:24.282Z,69.20
2017-09-24T18:21:51.963Z,68.80
2017-09-24T18:24:20.991Z,69.20
2017-09-24T18:26:54.790Z,69.10
2017-09-24T18:29:23.517Z,68.80
2017-09-24T18:31:52.773Z,68.40
2017-09-24T18:34:20.714Z,68.40
2017-09-24T18:36:48.914Z,69.40
2017-09-24T18:39:18.683Z,68.50
2017-09-24T18:41:46.286Z,68.80
2017-09-24T18:44:15.033Z,68.80
2017-09-24T18:46:46.165Z,69.30
2017-09-24T18:49:13.471Z,69.10
2017-09-24T18:51:42.361Z,69.80
2017-09-24T18:54:13.190Z,69.60
2017-09-24T18:56:39.963Z,69.70
2017-09-24T18:59:07.956Z,69.40
2017-09-24T19:01:40.309Z,69.80
2017-09-24T19:04:09.160Z,69.80
2017-09-24T19:06:36.458Z,69.60
2017-09-24T19:09:05.205Z,69.70
2017-09-24T19:11:35.541Z,69.50
2017-09-24T19:14:02.806Z,69.90
2017-09-24T19:16:34.742Z,70.00
2017-09-24T19:19:05.203Z,70.00
2017-09-24T19:21:32.614Z,70.70
2017-09-24T19:24:03.673Z,70.70
2017-09-24T19:26:31.028Z,70.50
2017-09-24T19:28:58.807Z,70.40
2017-09-24T19:31:29.209Z,70.30
2017-09-24T19:33:58.144Z,70.40
2017-09-24T19:36:28.544Z,71.00
2017-09-24T19:39:00.514Z,70.90
2017-09-24T19:41:32.636Z,71.20
2017-09-24T19:43:59.947Z,71.60
2017-09-24T19:46:28.817Z,72.50
2017-09-24T19:48:56.584Z,72.60
2017-09-24T19:51:27.852Z,72.60
2017-09-24T19:53:54.797Z,72.70
2017-09-24T19:56:22.486Z,72.70
2017-09-24T19:58:52.264Z,73.30
2017-09-24T20:01:21.839Z,73.40
2017-09-24T20:03:52.804Z,73.50
2017-09-24T20:06:20.995Z,73.50
2017-09-24T20:08:49.851Z,73.90
2017-09-24T20:11:18.868Z,73.80
2017-09-24T20:13:45.279Z,73.80
2017-09-24T20:16:12.528Z,73.90
2017-09-24T20:18:40.470Z,74.20
2017-09-24T20:21:06.792Z,74.60
2017-09-24T20:23:38.842Z,74.70
2017-09-24T20:26:06.995Z,74.90
2017-09-24T20:28:36.199Z,75.00
2017-09-24T20:31:07.902Z,75.30
2017-09-24T20:33:38.363Z,75.40
2017-09-24T20:36:04.691Z,75.40
2017-09-24T20:38:31.006Z,75.60
2017-09-24T20:40:58.616Z,75.60
2017-09-24T20:43:28.183Z,76.10
2017-09-24T20:45:56.786Z,76.20
2017-09-24T20:48:26.065Z,76.00
2017-09-24T20:50:53.074Z,75.90
2017-09-24T20:53:22.246Z,75.90
2017-09-24T20:55:51.423Z,75.90
2017-09-24T20:58:18.381Z,75.90
2017-09-24T21:00:45.951Z,75.80
2017-09-24T21:03:15.592Z,75.80
2017-09-24T21:05:44.207Z,75.90
2017-09-24T21:08:16.107Z,76.00
2017-09-24T21:10:43.437Z,75.90
2017-09-24T21:13:11.105Z,76.10
2017-09-24T21:15:40.341Z,76.00
2017-09-24T21:18:08.153Z,76.00
2017-09-24T21:20:34.476Z,76.10
2017-09-24T21:23:02.538Z,76.60
2017-09-24T21:25:29.648Z,76.80
2017-09-24T21:27:58.736Z,76.80
2017-09-24T21:30:26.957Z,76.80
2017-09-24T21:32:55.210Z,76.80
2017-09-24T21:35:24.481Z,77.20
2017-09-24T21:37:52.129Z,77.10
2017-09-24T21:40:21.259Z,76.90
2017-09-24T21:42:50.678Z,77.00
2017-09-24T21:45:22.839Z,77.10
2017-09-24T21:47:52.507Z,76.90
2017-09-24T21:50:22.346Z,77.00
2017-09-24T21:52:52.489Z,76.90
2017-09-24T21:55:20.549Z,76.80
2017-09-24T21:57:51.443Z,77.00
2017-09-24T22:00:18.502Z,77.10
2017-09-24T22:02:52.188Z,77.30
2017-09-24T22:05:20.190Z,77.50
2017-09-24T22:07:50.647Z,77.40
2017-09-24T22:10:19.546Z,77.30
2017-09-24T22:12:47.229Z,77.00
2017-09-24T22:15:14.910Z,77.00
2017-09-24T22:17:41.609Z,77.10
2017-09-24T22:20:09.841Z,77.10
2017-09-24T22:22:37.089Z,77.10
2017-09-24T22:25:06.987Z,77.00
2017-09-24T22:27:35.513Z,77.00
2017-09-24T22:30:05.365Z,77.00
2017-09-24T22:32:35.435Z,77.20
2017-09-24T22:35:03.261Z,77.00
2017-09-24T22:37:35.535Z,77.00
2017-09-24T22:40:03.471Z,77.20
2017-09-24T22:42:32.519Z,77.50
2017-09-24T22:45:01.243Z,77.70
2017-09-24T22:47:27.930Z,78.00
2017-09-24T22:49:58.252Z,78.00
2017-09-24T22:52:26.765Z,78.20
2017-09-24T22:54:55.164Z,78.00
2017-09-24T22:57:22.424Z,77.90
2017-09-24T22:59:49.892Z,78.10
2017-09-24T23:02:18.016Z,77.90
2017-09-24T23:04:46.827Z,77.90
2017-09-24T23:07:15.538Z,77.70
2017-09-24T23:09:43.249Z,77.80
2017-09-24T23:12:09.543Z,77.80
2017-09-24T23:14:36.754Z,77.70
2017-09-24T23:17:04.718Z,77.60
2017-09-24T23:19:33.106Z,77.60
2017-09-24T23:22:00.855Z,77.40
2017-09-24T23:24:28.954Z,77.50
2017-09-24T23:26:57.062Z,77.40
2017-09-24T23:29:23.420Z,77.40
2017-09-24T23:31:51.703Z,77.50
2017-09-24T23:34:18.866Z,77.70
2017-09-24T23:36:47.082Z,77.80
2017-09-24T23:39:13.371Z,78.00
2017-09-24T23:41:39.683Z,78.30
2017-09-24T23:44:08.644Z,78.60
2017-09-24T23:46:35.182Z,78.60
2017-09-24T23:49:03.352Z,79.10
2017-09-24T23:51:31.724Z,78.70
2017-09-24T23:54:01.650Z,78.20
2017-09-24T23:56:31.167Z,77.70
2017-09-24T23:59:02.282Z,77.70
